sensor_id;sensor_type;location;lat;lon;timestamp;pressure;altitude;pressure_sealevel;temperature;humidity
15489;BME280;7846;48.830;9.116;2023-05-10T00:00:21;97232.34;;;16.32;85.74
15489;BME280;7846;48.830;9.116;2023-05-10T00:02:49;97233.97;;;16.40;85.16
15489;BME280;7846;48.830;9.116;2023-05-10T00:05:15;97238.91;;;16.23;84.37
15489;BME280;7846;48.830;9.116;2023-05-10T00:07:40;97232.94;;;16.28;85.41
15489;BME280;7846;48.830;9.116;2023-05-10T00:10:06;97249.56;;;16.10;85.41
15489;BME280;7846;48.830;9.116;2023-05-10T00:12:31;97235.25;;;15.97;84.30
15489;BME280;7846;48.830;9.116;2023-05-10T00:14:57;97237.53;;;15.87;84.24
15489;BME280;7846;48.830;9.116;2023-05-10T00:17:22;97230.59;;;15.80;84.31
15489;BME280;7846;48.830;9.116;2023-05-10T00:19:48;97228.94;;;15.85;84.12
15489;BME280;7846;48.830;9.116;2023-05-10T00:22:14;97233.03;;;15.88;83.62
15489;BME280;7846;48.830;9.116;2023-05-10T00:24:39;97229.34;;;15.95;83.80
15489;BME280;7846;48.830;9.116;2023-05-10T00:27:04;97231.19;;;15.88;83.76
15489;BME280;7846;48.830;9.116;2023-05-10T00:29:31;97219.72;;;16.01;84.01
15489;BME280;7846;48.830;9.116;2023-05-10T00:31:56;97228.31;;;15.83;83.95
15489;BME280;7846;48.830;9.116;2023-05-10T00:34:22;97231.00;;;15.70;84.37
15489;BME280;7846;48.830;9.116;2023-05-10T00:36:47;97228.13;;;15.85;84.32
15489;BME280;7846;48.830;9.116;2023-05-10T00:39:13;97229.16;;;15.70;84.83
15489;BME280;7846;48.830;9.116;2023-05-10T00:41:38;97226.69;;;15.82;84.20
15489;BME280;7846;48.830;9.116;2023-05-10T00:44:03;97234.25;;;15.79;84.03
15489;BME280;7846;48.830;9.116;2023-05-10T00:46:29;97234.66;;;15.76;84.30
15489;BME280;7846;48.830;9.116;2023-05-10T00:48:54;97247.72;;;15.70;84.41
15489;BME280;7846;48.830;9.116;2023-05-10T00:51:20;97242.81;;;15.74;84.11
15489;BME280;7846;48.830;9.116;2023-05-10T00:53:46;97250.78;;;16.07;83.60
15489;BME280;7846;48.830;9.116;2023-05-10T00:56:12;97259.34;;;15.83;83.69
15489;BME280;7846;48.830;9.116;2023-05-10T00:58:39;97258.56;;;15.69;84.11
15489;BME280;7846;48.830;9.116;2023-05-10T01:01:04;97266.50;;;15.69;83.76
15489;BME280;7846;48.830;9.116;2023-05-10T01:03:32;97265.03;;;15.60;83.98
15489;BME280;7846;48.830;9.116;2023-05-10T01:05:57;97253.00;;;15.51;83.89
15489;BME280;7846;48.830;9.116;2023-05-10T01:08:23;97263.00;;;15.55;83.48
15489;BME280;7846;48.830;9.116;2023-05-10T01:10:48;97261.41;;;15.74;82.52
15489;BME280;7846;48.830;9.116;2023-05-10T01:15:52;97254.66;;;15.78;82.87
15489;BME280;7846;48.830;9.116;2023-05-10T01:18:19;97255.06;;;15.75;82.31
15489;BME280;7846;48.830;9.116;2023-05-10T01:20:48;97255.69;;;15.77;81.99
15489;BME280;7846;48.830;9.116;2023-05-10T01:29:22;97254.47;;;16.00;81.76
15489;BME280;7846;48.830;9.116;2023-05-10T01:34:36;97262.22;;;15.88;82.52
15489;BME280;7846;48.830;9.116;2023-05-10T01:37:10;97269.53;;;16.12;82.13
15489;BME280;7846;48.830;9.116;2023-05-10T01:39:44;97266.50;;;16.02;81.77
15489;BME280;7846;48.830;9.116;2023-05-10T01:42:14;97252.41;;;16.08;81.76
15489;BME280;7846;48.830;9.116;2023-05-10T01:47:43;97268.13;;;15.90;82.39
15489;BME280;7846;48.830;9.116;2023-05-10T01:50:17;97271.78;;;16.15;81.34
15489;BME280;7846;48.830;9.116;2023-05-10T01:52:47;97263.19;;;16.20;80.77
15489;BME280;7846;48.830;9.116;2023-05-10T01:55:16;97275.88;;;15.98;80.62
15489;BME280;7846;48.830;9.116;2023-05-10T01:57:44;97282.63;;;16.14;80.82
15489;BME280;7846;48.830;9.116;2023-05-10T02:00:13;97281.41;;;15.96;81.36
15489;BME280;7846;48.830;9.116;2023-05-10T02:02:42;97279.34;;;16.12;81.21
15489;BME280;7846;48.830;9.116;2023-05-10T02:05:11;97281.41;;;16.03;81.35
15489;BME280;7846;48.830;9.116;2023-05-10T02:07:38;97295.09;;;15.80;81.16
15489;BME280;7846;48.830;9.116;2023-05-10T02:10:06;97291.44;;;15.88;81.35
15489;BME280;7846;48.830;9.116;2023-05-10T02:12:37;97295.69;;;16.09;81.13
15489;BME280;7846;48.830;9.116;2023-05-10T02:15:05;97288.16;;;15.99;81.31
15489;BME280;7846;48.830;9.116;2023-05-10T02:17:32;97289.19;;;15.85;80.76
15489;BME280;7846;48.830;9.116;2023-05-10T02:20:01;97287.34;;;15.92;80.88
15489;BME280;7846;48.830;9.116;2023-05-10T02:22:27;97288.78;;;15.94;80.88
15489;BME280;7846;48.830;9.116;2023-05-10T02:24:57;97292.44;;;16.00;81.28
15489;BME280;7846;48.830;9.116;2023-05-10T02:27:23;97291.22;;;16.03;80.50
15489;BME280;7846;48.830;9.116;2023-05-10T02:29:51;97297.97;;;15.92;80.83
15489;BME280;7846;48.830;9.116;2023-05-10T02:32:17;97304.69;;;16.01;80.45
15489;BME280;7846;48.830;9.116;2023-05-10T02:34:45;97304.69;;;16.08;80.23
15489;BME280;7846;48.830;9.116;2023-05-10T02:37:13;97314.28;;;16.22;79.79
15489;BME280;7846;48.830;9.116;2023-05-10T02:39:39;97322.03;;;16.04;79.83
15489;BME280;7846;48.830;9.116;2023-05-10T02:42:11;97316.53;;;16.18;79.80
15489;BME280;7846;48.830;9.116;2023-05-10T02:44:41;97323.88;;;16.16;79.38
15489;BME280;7846;48.830;9.116;2023-05-10T02:47:07;97315.72;;;16.11;78.87
15489;BME280;7846;48.830;9.116;2023-05-10T02:49:32;97314.91;;;16.04;79.25
15489;BME280;7846;48.830;9.116;2023-05-10T02:52:01;97320.19;;;16.31;78.66
15489;BME280;7846;48.830;9.116;2023-05-10T02:54:33;97312.22;;;16.37;78.19
15489;BME280;7846;48.830;9.116;2023-05-10T02:57:04;97310.59;;;16.36;78.69
15489;BME280;7846;48.830;9.116;2023-05-10T02:59:30;97315.09;;;16.23;78.79
15489;BME280;7846;48.830;9.116;2023-05-10T03:01:58;97314.91;;;16.11;78.30
15489;BME280;7846;48.830;9.116;2023-05-10T03:04:25;97317.34;;;16.12;78.43
15489;BME280;7846;48.830;9.116;2023-05-10T03:06:50;97317.97;;;16.21;78.51
15489;BME280;7846;48.830;9.116;2023-05-10T03:09:16;97318.16;;;16.26;78.71
15489;BME280;7846;48.830;9.116;2023-05-10T03:15:02;97326.09;;;16.46;79.32
15489;BME280;7846;48.830;9.116;2023-05-10T03:17:42;97333.88;;;16.28;79.82
15489;BME280;7846;48.830;9.116;2023-05-10T03:20:18;97341.03;;;16.47;79.43
15489;BME280;7846;48.830;9.116;2023-05-10T03:23:01;97335.09;;;16.45;78.78
15489;BME280;7846;48.830;9.116;2023-05-10T03:25:29;97338.19;;;16.35;79.64
15489;BME280;7846;48.830;9.116;2023-05-10T03:27:56;97335.13;;;16.12;80.33
15489;BME280;7846;48.830;9.116;2023-05-10T03:30:22;97330.44;;;16.20;79.17
15489;BME280;7846;48.830;9.116;2023-05-10T03:32:49;97327.97;;;16.19;79.37
15489;BME280;7846;48.830;9.116;2023-05-10T03:35:14;97337.78;;;16.25;79.20
15489;BME280;7846;48.830;9.116;2023-05-10T03:37:39;97338.19;;;16.22;79.20
15489;BME280;7846;48.830;9.116;2023-05-10T03:40:06;97335.34;;;16.10;80.22
15489;BME280;7846;48.830;9.116;2023-05-10T03:42:31;97338.19;;;16.15;79.75
15489;BME280;7846;48.830;9.116;2023-05-10T03:44:57;97339.41;;;16.33;78.86
15489;BME280;7846;48.830;9.116;2023-05-10T03:47:23;97334.50;;;16.36;78.55
15489;BME280;7846;48.830;9.116;2023-05-10T03:49:49;97335.13;;;16.32;78.97
15489;BME280;7846;48.830;9.116;2023-05-10T03:52:15;97331.63;;;16.51;78.08
15489;BME280;7846;48.830;9.116;2023-05-10T03:54:40;97338.38;;;16.47;78.50
15489;BME280;7846;48.830;9.116;2023-05-10T03:57:06;97347.97;;;16.35;78.74
15489;BME280;7846;48.830;9.116;2023-05-10T03:59:32;97347.16;;;16.34;78.67
15489;BME280;7846;48.830;9.116;2023-05-10T04:01:57;97349.00;;;16.40;78.69
15489;BME280;7846;48.830;9.116;2023-05-10T04:04:23;97351.47;;;16.29;78.59
15489;BME280;7846;48.830;9.116;2023-05-10T04:06:48;97347.38;;;16.33;79.16
15489;BME280;7846;48.830;9.116;2023-05-10T04:09:14;97346.38;;;16.20;79.35
15489;BME280;7846;48.830;9.116;2023-05-10T04:11:40;97351.25;;;16.24;79.46
15489;BME280;7846;48.830;9.116;2023-05-10T04:14:06;97347.16;;;16.41;78.61
15489;BME280;7846;48.830;9.116;2023-05-10T04:16:31;97347.78;;;16.23;79.13
15489;BME280;7846;48.830;9.116;2023-05-10T04:18:57;97347.19;;;16.14;80.03
15489;BME280;7846;48.830;9.116;2023-05-10T04:21:22;97351.47;;;16.22;79.03
15489;BME280;7846;48.830;9.116;2023-05-10T04:23:47;97344.72;;;16.26;79.19
15489;BME280;7846;48.830;9.116;2023-05-10T04:26:14;97353.28;;;16.48;78.23
15489;BME280;7846;48.830;9.116;2023-05-10T04:28:39;97348.41;;;16.32;78.26
15489;BME280;7846;48.830;9.116;2023-05-10T04:31:08;97356.97;;;16.27;79.19
15489;BME280;7846;48.830;9.116;2023-05-10T04:33:35;97353.31;;;16.21;78.96
15489;BME280;7846;48.830;9.116;2023-05-10T04:36:01;97368.19;;;16.49;77.75
15489;BME280;7846;48.830;9.116;2023-05-10T04:38:27;97358.59;;;16.41;77.82
15489;BME280;7846;48.830;9.116;2023-05-10T04:40:53;97363.69;;;16.56;77.51
15489;BME280;7846;48.830;9.116;2023-05-10T04:43:18;97359.22;;;16.50;77.70
15489;BME280;7846;48.830;9.116;2023-05-10T04:45:44;97359.81;;;16.52;77.28
15489;BME280;7846;48.830;9.116;2023-05-10T04:48:10;97357.78;;;16.41;78.01
15489;BME280;7846;48.830;9.116;2023-05-10T04:50:36;97369.00;;;16.63;76.79
15489;BME280;7846;48.830;9.116;2023-05-10T04:53:02;97369.59;;;16.91;76.67
15489;BME280;7846;48.830;9.116;2023-05-10T04:55:27;97376.56;;;16.86;76.32
15489;BME280;7846;48.830;9.116;2023-05-10T04:57:53;97375.16;;;16.77;77.04
15489;BME280;7846;48.830;9.116;2023-05-10T05:00:20;97373.69;;;16.87;76.54
15489;BME280;7846;48.830;9.116;2023-05-10T05:02:45;97370.59;;;16.90;76.13
15489;BME280;7846;48.830;9.116;2023-05-10T05:05:12;97379.75;;;17.08;75.81
15489;BME280;7846;48.830;9.116;2023-05-10T05:07:37;97380.78;;;17.13;75.15
15489;BME280;7846;48.830;9.116;2023-05-10T05:10:04;97381.19;;;17.17;76.07
15489;BME280;7846;48.830;9.116;2023-05-10T05:12:30;97378.03;;;17.33;75.21
15489;BME280;7846;48.830;9.116;2023-05-10T05:14:55;97374.66;;;17.58;74.60
15489;BME280;7846;48.830;9.116;2023-05-10T05:17:21;97388.28;;;17.30;76.21
15489;BME280;7846;48.830;9.116;2023-05-10T05:19:46;97392.16;;;17.34;74.85
15489;BME280;7846;48.830;9.116;2023-05-10T05:22:12;97386.81;;;17.40;74.68
15489;BME280;7846;48.830;9.116;2023-05-10T05:24:38;97384.91;;;17.54;74.25
15489;BME280;7846;48.830;9.116;2023-05-10T05:27:03;97385.03;;;17.73;73.94
15489;BME280;7846;48.830;9.116;2023-05-10T05:29:32;97389.78;;;17.57;73.93
15489;BME280;7846;48.830;9.116;2023-05-10T05:31:58;97397.09;;;17.75;72.78
15489;BME280;7846;48.830;9.116;2023-05-10T05:34:24;97398.94;;;17.68;72.58
15489;BME280;7846;48.830;9.116;2023-05-10T05:36:50;97398.41;;;17.59;73.66
15489;BME280;7846;48.830;9.116;2023-05-10T05:39:16;97395.88;;;17.71;72.92
15489;BME280;7846;48.830;9.116;2023-05-10T05:41:41;97401.66;;;17.61;72.98
15489;BME280;7846;48.830;9.116;2023-05-10T05:44:08;97397.72;;;17.26;74.29
15489;BME280;7846;48.830;9.116;2023-05-10T05:46:33;97398.38;;;17.08;74.87
15489;BME280;7846;48.830;9.116;2023-05-10T05:48:58;97400.97;;;17.28;74.16
15489;BME280;7846;48.830;9.116;2023-05-10T05:51:25;97404.06;;;17.25;74.01
15489;BME280;7846;48.830;9.116;2023-05-10T05:53:50;97404.94;;;17.05;74.71
15489;BME280;7846;48.830;9.116;2023-05-10T05:56:15;97408.91;;;17.41;74.58
15489;BME280;7846;48.830;9.116;2023-05-10T05:58:42;97408.75;;;17.29;74.53
15489;BME280;7846;48.830;9.116;2023-05-10T06:01:07;97411.41;;;17.36;74.75
15489;BME280;7846;48.830;9.116;2023-05-10T06:03:34;97415.06;;;17.35;73.12
15489;BME280;7846;48.830;9.116;2023-05-10T06:06:00;97417.13;;;17.39;74.58
15489;BME280;7846;48.830;9.116;2023-05-10T06:08:26;97410.75;;;17.40;73.70
15489;BME280;7846;48.830;9.116;2023-05-10T06:10:53;97411.03;;;17.71;73.16
15489;BME280;7846;48.830;9.116;2023-05-10T06:13:18;97415.13;;;17.73;73.49
15489;BME280;7846;48.830;9.116;2023-05-10T06:15:44;97420.59;;;17.40;74.05
15489;BME280;7846;48.830;9.116;2023-05-10T06:18:10;97428.56;;;17.40;73.52
15489;BME280;7846;48.830;9.116;2023-05-10T06:20:37;97426.31;;;17.37;73.87
15489;BME280;7846;48.830;9.116;2023-05-10T06:23:03;97420.09;;;17.63;73.41
15489;BME280;7846;48.830;9.116;2023-05-10T06:25:28;97430.88;;;17.75;73.01
15489;BME280;7846;48.830;9.116;2023-05-10T06:27:55;97432.47;;;17.37;72.52
15489;BME280;7846;48.830;9.116;2023-05-10T06:30:23;97433.88;;;17.47;72.15
15489;BME280;7846;48.830;9.116;2023-05-10T06:32:52;97435.22;;;17.69;72.00
15489;BME280;7846;48.830;9.116;2023-05-10T06:35:18;97426.75;;;17.34;72.50
15489;BME280;7846;48.830;9.116;2023-05-10T06:37:44;97433.38;;;17.63;72.50
15489;BME280;7846;48.830;9.116;2023-05-10T06:40:10;97432.72;;;17.74;71.57
15489;BME280;7846;48.830;9.116;2023-05-10T06:42:36;97429.78;;;17.96;70.95
15489;BME280;7846;48.830;9.116;2023-05-10T06:45:01;97432.66;;;18.26;70.20
15489;BME280;7846;48.830;9.116;2023-05-10T06:47:27;97431.63;;;17.95;71.14
15489;BME280;7846;48.830;9.116;2023-05-10T06:49:52;97430.72;;;17.76;71.45
15489;BME280;7846;48.830;9.116;2023-05-10T06:52:18;97430.47;;;17.78;72.20
15489;BME280;7846;48.830;9.116;2023-05-10T06:54:44;97441.41;;;17.56;72.47
15489;BME280;7846;48.830;9.116;2023-05-10T06:57:10;97437.81;;;17.82;71.67
15489;BME280;7846;48.830;9.116;2023-05-10T06:59:35;97432.16;;;17.65;70.81
15489;BME280;7846;48.830;9.116;2023-05-10T07:02:01;97430.69;;;17.70;70.53
15489;BME280;7846;48.830;9.116;2023-05-10T07:04:27;97431.69;;;17.82;70.84
15489;BME280;7846;48.830;9.116;2023-05-10T07:06:52;97431.72;;;17.69;69.53
15489;BME280;7846;48.830;9.116;2023-05-10T07:09:18;97436.44;;;17.66;69.59
15489;BME280;7846;48.830;9.116;2023-05-10T07:11:43;97442.81;;;17.65;69.26
15489;BME280;7846;48.830;9.116;2023-05-10T07:14:08;97439.38;;;17.52;69.82
15489;BME280;7846;48.830;9.116;2023-05-10T07:16:35;97445.56;;;17.90;67.74
15489;BME280;7846;48.830;9.116;2023-05-10T07:19:00;97441.78;;;17.66;68.47
15489;BME280;7846;48.830;9.116;2023-05-10T07:21:25;97445.78;;;17.89;67.86
15489;BME280;7846;48.830;9.116;2023-05-10T07:23:53;97442.00;;;18.10;67.62
15489;BME280;7846;48.830;9.116;2023-05-10T07:26:19;97444.34;;;17.86;68.00
15489;BME280;7846;48.830;9.116;2023-05-10T07:28:44;97445.13;;;18.32;66.88
15489;BME280;7846;48.830;9.116;2023-05-10T07:31:10;97447.41;;;18.53;66.66
15489;BME280;7846;48.830;9.116;2023-05-10T07:33:36;97451.28;;;18.32;66.57
15489;BME280;7846;48.830;9.116;2023-05-10T07:36:02;97449.50;;;18.20;67.64
15489;BME280;7846;48.830;9.116;2023-05-10T07:38:28;97459.06;;;18.59;65.58
15489;BME280;7846;48.830;9.116;2023-05-10T07:40:53;97461.16;;;18.82;65.75
15489;BME280;7846;48.830;9.116;2023-05-10T07:43:18;97458.38;;;18.95;64.56
15489;BME280;7846;48.830;9.116;2023-05-10T07:45:44;97464.56;;;19.14;63.96
15489;BME280;7846;48.830;9.116;2023-05-10T07:48:09;97464.53;;;18.96;64.13
15489;BME280;7846;48.830;9.116;2023-05-10T07:50:35;97468.56;;;19.42;63.95
15489;BME280;7846;48.830;9.116;2023-05-10T07:53:00;97466.56;;;19.55;61.98
15489;BME280;7846;48.830;9.116;2023-05-10T07:55:26;97469.81;;;19.02;61.89
15489;BME280;7846;48.830;9.116;2023-05-10T07:57:52;97471.34;;;18.60;64.42
15489;BME280;7846;48.830;9.116;2023-05-10T08:00:19;97480.69;;;18.76;63.45
15489;BME280;7846;48.830;9.116;2023-05-10T08:02:45;97468.31;;;18.56;63.38
15489;BME280;7846;48.830;9.116;2023-05-10T08:05:10;97469.22;;;18.75;63.25
15489;BME280;7846;48.830;9.116;2023-05-10T08:07:36;97467.25;;;18.89;63.09
15489;BME280;7846;48.830;9.116;2023-05-10T08:10:02;97471.69;;;18.70;64.67
15489;BME280;7846;48.830;9.116;2023-05-10T08:12:27;97470.25;;;18.99;63.68
15489;BME280;7846;48.830;9.116;2023-05-10T08:14:53;97474.25;;;18.83;63.48
15489;BME280;7846;48.830;9.116;2023-05-10T08:17:18;97472.72;;;19.19;62.44
15489;BME280;7846;48.830;9.116;2023-05-10T08:19:44;97480.31;;;18.97;61.94
15489;BME280;7846;48.830;9.116;2023-05-10T08:22:11;97473.09;;;19.23;62.29
15489;BME280;7846;48.830;9.116;2023-05-10T08:24:38;97476.78;;;19.22;61.79
15489;BME280;7846;48.830;9.116;2023-05-10T08:27:07;97485.19;;;19.00;60.12
15489;BME280;7846;48.830;9.116;2023-05-10T08:29:33;97488.94;;;19.18;61.05
15489;BME280;7846;48.830;9.116;2023-05-10T08:31:59;97491.59;;;18.68;60.18
15489;BME280;7846;48.830;9.116;2023-05-10T08:34:26;97492.00;;;18.96;60.04
15489;BME280;7846;48.830;9.116;2023-05-10T08:36:52;97480.59;;;18.57;61.04
15489;BME280;7846;48.830;9.116;2023-05-10T08:39:18;97481.84;;;18.55;60.50
15489;BME280;7846;48.830;9.116;2023-05-10T08:41:44;97489.59;;;18.63;60.02
15489;BME280;7846;48.830;9.116;2023-05-10T08:44:11;97481.06;;;19.04;59.16
15489;BME280;7846;48.830;9.116;2023-05-10T08:46:40;97487.16;;;19.73;58.81
15489;BME280;7846;48.830;9.116;2023-05-10T08:49:11;97487.50;;;19.77;58.05
15489;BME280;7846;48.830;9.116;2023-05-10T08:51:40;97483.41;;;19.38;57.64
15489;BME280;7846;48.830;9.116;2023-05-10T08:54:07;97496.00;;;19.49;58.39
15489;BME280;7846;48.830;9.116;2023-05-10T08:56:32;97494.38;;;19.48;58.51
15489;BME280;7846;48.830;9.116;2023-05-10T08:58:58;97507.88;;;20.08;58.03
15489;BME280;7846;48.830;9.116;2023-05-10T09:01:24;97496.03;;;19.86;57.68
15489;BME280;7846;48.830;9.116;2023-05-10T09:03:50;97497.94;;;19.97;56.99
15489;BME280;7846;48.830;9.116;2023-05-10T09:06:17;97509.63;;;19.66;57.50
15489;BME280;7846;48.830;9.116;2023-05-10T09:08:42;97502.25;;;19.79;56.64
15489;BME280;7846;48.830;9.116;2023-05-10T09:11:09;97512.81;;;20.23;56.21
15489;BME280;7846;48.830;9.116;2023-05-10T09:13:35;97503.16;;;19.73;56.93
15489;BME280;7846;48.830;9.116;2023-05-10T09:16:01;97504.19;;;19.72;56.94
15489;BME280;7846;48.830;9.116;2023-05-10T09:18:27;97509.41;;;19.24;57.86
15489;BME280;7846;48.830;9.116;2023-05-10T09:20:53;97510.97;;;19.31;58.70
15489;BME280;7846;48.830;9.116;2023-05-10T09:23:18;97510.13;;;19.13;57.63
15489;BME280;7846;48.830;9.116;2023-05-10T09:25:43;97516.78;;;19.47;57.21
15489;BME280;7846;48.830;9.116;2023-05-10T09:28:11;97513.25;;;19.71;55.82
15489;BME280;7846;48.830;9.116;2023-05-10T09:30:36;97509.50;;;20.09;56.30
15489;BME280;7846;48.830;9.116;2023-05-10T09:33:02;97512.13;;;19.97;57.03
15489;BME280;7846;48.830;9.116;2023-05-10T09:35:30;97520.06;;;20.04;56.10
15489;BME280;7846;48.830;9.116;2023-05-10T09:37:58;97510.22;;;20.16;56.21
15489;BME280;7846;48.830;9.116;2023-05-10T09:40:25;97515.84;;;19.78;56.91
15489;BME280;7846;48.830;9.116;2023-05-10T09:42:55;97521.28;;;19.46;57.87
15489;BME280;7846;48.830;9.116;2023-05-10T09:45:22;97520.50;;;19.64;58.00
15489;BME280;7846;48.830;9.116;2023-05-10T09:47:48;97510.59;;;19.46;58.94
15489;BME280;7846;48.830;9.116;2023-05-10T09:50:13;97525.16;;;19.32;59.56
15489;BME280;7846;48.830;9.116;2023-05-10T09:52:47;97531.22;;;19.39;59.68
15489;BME280;7846;48.830;9.116;2023-05-10T09:55:13;97532.34;;;19.50;58.55
15489;BME280;7846;48.830;9.116;2023-05-10T09:57:38;97533.81;;;19.71;58.28
15489;BME280;7846;48.830;9.116;2023-05-10T10:00:04;97522.75;;;19.24;57.96
15489;BME280;7846;48.830;9.116;2023-05-10T10:02:31;97524.94;;;19.52;59.70
15489;BME280;7846;48.830;9.116;2023-05-10T10:04:56;97526.50;;;19.16;58.29
15489;BME280;7846;48.830;9.116;2023-05-10T10:07:23;97520.34;;;19.16;58.50
15489;BME280;7846;48.830;9.116;2023-05-10T10:09:52;97531.22;;;19.21;59.10
15489;BME280;7846;48.830;9.116;2023-05-10T10:12:18;97535.94;;;18.94;58.09
15489;BME280;7846;48.830;9.116;2023-05-10T10:14:46;97530.91;;;19.29;58.17
15489;BME280;7846;48.830;9.116;2023-05-10T10:17:12;97526.41;;;19.73;57.05
15489;BME280;7846;48.830;9.116;2023-05-10T10:19:38;97531.13;;;19.89;56.82
15489;BME280;7846;48.830;9.116;2023-05-10T10:22:04;97522.19;;;20.14;56.49
15489;BME280;7846;48.830;9.116;2023-05-10T10:24:29;97527.66;;;20.19;56.03
15489;BME280;7846;48.830;9.116;2023-05-10T10:26:58;97511.78;;;20.05;57.21
15489;BME280;7846;48.830;9.116;2023-05-10T10:29:56;97528.13;;;20.16;57.35
15489;BME280;7846;48.830;9.116;2023-05-10T10:35:13;97513.59;;;19.56;57.61
15489;BME280;7846;48.830;9.116;2023-05-10T10:37:46;97541.94;;;19.94;56.30
15489;BME280;7846;48.830;9.116;2023-05-10T10:40:26;97531.72;;;20.40;55.91
15489;BME280;7846;48.830;9.116;2023-05-10T10:42:52;97541.94;;;20.13;56.26
15489;BME280;7846;48.830;9.116;2023-05-10T10:45:19;97535.69;;;20.19;55.85
15489;BME280;7846;48.830;9.116;2023-05-10T10:47:45;97524.41;;;19.98;55.64
15489;BME280;7846;48.830;9.116;2023-05-10T10:50:11;97536.03;;;19.92;55.80
15489;BME280;7846;48.830;9.116;2023-05-10T10:52:42;97531.84;;;20.15;55.52
15489;BME280;7846;48.830;9.116;2023-05-10T11:00:19;97536.91;;;20.35;53.39
15489;BME280;7846;48.830;9.116;2023-05-10T11:02:50;97538.03;;;20.27;55.33
15489;BME280;7846;48.830;9.116;2023-05-10T11:08:00;97540.31;;;19.75;53.97
15489;BME280;7846;48.830;9.116;2023-05-10T11:10:26;97548.72;;;19.78;54.24
15489;BME280;7846;48.830;9.116;2023-05-10T11:15:28;97542.22;;;20.23;53.20
15489;BME280;7846;48.830;9.116;2023-05-10T11:17:54;97545.53;;;19.88;53.00
15489;BME280;7846;48.830;9.116;2023-05-10T11:20:21;97534.09;;;19.81;51.73
15489;BME280;7846;48.830;9.116;2023-05-10T11:22:52;97532.91;;;19.95;50.75
15489;BME280;7846;48.830;9.116;2023-05-10T11:25:17;97533.13;;;19.94;51.43
15489;BME280;7846;48.830;9.116;2023-05-10T11:27:43;97530.88;;;20.39;50.72
15489;BME280;7846;48.830;9.116;2023-05-10T11:30:10;97530.88;;;20.39;49.85
15489;BME280;7846;48.830;9.116;2023-05-10T11:32:40;97538.59;;;20.17;49.86
15489;BME280;7846;48.830;9.116;2023-05-10T11:35:10;97549.84;;;21.21;50.26
15489;BME280;7846;48.830;9.116;2023-05-10T11:37:36;97542.59;;;21.10;48.61
15489;BME280;7846;48.830;9.116;2023-05-10T11:40:07;97535.72;;;20.30;49.49
15489;BME280;7846;48.830;9.116;2023-05-10T11:42:32;97548.72;;;19.78;50.85
15489;BME280;7846;48.830;9.116;2023-05-10T11:45:00;97532.34;;;19.50;52.27
15489;BME280;7846;48.830;9.116;2023-05-10T11:47:26;97548.44;;;19.43;51.70
15489;BME280;7846;48.830;9.116;2023-05-10T11:49:51;97544.81;;;19.56;51.39
15489;BME280;7846;48.830;9.116;2023-05-10T11:52:18;97546.53;;;19.69;51.62
15489;BME280;7846;48.830;9.116;2023-05-10T11:54:54;97556.81;;;19.03;52.75
15489;BME280;7846;48.830;9.116;2023-05-10T11:57:20;97552.81;;;19.13;52.60
15489;BME280;7846;48.830;9.116;2023-05-10T11:59:46;97556.25;;;19.20;53.71
15489;BME280;7846;48.830;9.116;2023-05-10T12:02:13;97559.47;;;19.28;54.85
15489;BME280;7846;48.830;9.116;2023-05-10T12:04:39;97554.50;;;19.07;53.54
15489;BME280;7846;48.830;9.116;2023-05-10T12:07:06;97560.06;;;19.05;53.60
15489;BME280;7846;48.830;9.116;2023-05-10T12:09:31;97553.53;;;18.70;54.55
15489;BME280;7846;48.830;9.116;2023-05-10T12:14:16;97558.47;;;19.23;54.68
15489;BME280;7846;48.830;9.116;2023-05-10T12:16:42;97566.47;;;19.48;54.40
15489;BME280;7846;48.830;9.116;2023-05-10T12:19:08;97567.69;;;19.27;53.97
15489;BME280;7846;48.830;9.116;2023-05-10T12:21:33;97560.75;;;19.69;53.52
15489;BME280;7846;48.830;9.116;2023-05-10T12:24:01;97563.41;;;19.44;52.44
15489;BME280;7846;48.830;9.116;2023-05-10T12:26:27;97569.81;;;20.17;50.65
15489;BME280;7846;48.830;9.116;2023-05-10T12:28:54;97575.34;;;20.03;50.29
15489;BME280;7846;48.830;9.116;2023-05-10T12:31:19;97572.75;;;19.97;50.93
15489;BME280;7846;48.830;9.116;2023-05-10T12:33:45;97576.16;;;20.22;50.29
15489;BME280;7846;48.830;9.116;2023-05-10T12:36:12;97582.63;;;19.78;49.99
15489;BME280;7846;48.830;9.116;2023-05-10T12:38:39;97584.25;;;20.16;49.43
15489;BME280;7846;48.830;9.116;2023-05-10T12:41:12;97576.47;;;19.96;50.15
15489;BME280;7846;48.830;9.116;2023-05-10T12:43:39;97567.09;;;20.05;49.63
15489;BME280;7846;48.830;9.116;2023-05-10T12:46:06;97579.78;;;20.10;49.40
15489;BME280;7846;48.830;9.116;2023-05-10T12:48:32;97577.28;;;20.15;50.14
15489;BME280;7846;48.830;9.116;2023-05-10T12:50:59;97576.81;;;20.36;49.74
15489;BME280;7846;48.830;9.116;2023-05-10T12:53:26;97574.84;;;20.43;49.73
15489;BME280;7846;48.830;9.116;2023-05-10T12:55:51;97587.34;;;20.13;49.77
15489;BME280;7846;48.830;9.116;2023-05-10T12:58:16;97573.34;;;20.17;49.42
15489;BME280;7846;48.830;9.116;2023-05-10T13:00:42;97576.66;;;20.31;50.26
15489;BME280;7846;48.830;9.116;2023-05-10T13:03:09;97582.22;;;20.29;49.61
15489;BME280;7846;48.830;9.116;2023-05-10T13:05:36;97580.53;;;20.17;48.40
15489;BME280;7846;48.830;9.116;2023-05-10T13:08:02;97576.53;;;20.08;49.91
15489;BME280;7846;48.830;9.116;2023-05-10T13:10:32;97578.31;;;19.77;49.53
15489;BME280;7846;48.830;9.116;2023-05-10T13:13:00;97571.38;;;19.51;49.61
15489;BME280;7846;48.830;9.116;2023-05-10T13:15:26;97570.13;;;20.27;48.65
15489;BME280;7846;48.830;9.116;2023-05-10T13:17:53;97569.59;;;20.37;49.65
15489;BME280;7846;48.830;9.116;2023-05-10T13:20:18;97565.34;;;20.47;49.24
15489;BME280;7846;48.830;9.116;2023-05-10T13:22:45;97566.34;;;20.65;48.87
15489;BME280;7846;48.830;9.116;2023-05-10T13:25:11;97568.00;;;20.47;49.18
15489;BME280;7846;48.830;9.116;2023-05-10T13:27:39;97571.88;;;19.85;49.68
15489;BME280;7846;48.830;9.116;2023-05-10T13:30:07;97576.59;;;20.01;49.29
15489;BME280;7846;48.830;9.116;2023-05-10T13:32:33;97570.38;;;20.07;50.07
15489;BME280;7846;48.830;9.116;2023-05-10T13:34:58;97567.34;;;19.85;50.05
15489;BME280;7846;48.830;9.116;2023-05-10T13:37:23;97561.81;;;19.98;49.96
15489;BME280;7846;48.830;9.116;2023-05-10T13:39:49;97565.66;;;20.21;48.61